Terminal Aerodrome Forecast
Issued by NWS Twin Cities, MN

Home | Current Version | Previous Version | Graphics & Text | Print | Product List | Glossary On
Versions: 1 2 3 4 5 6 7 8 9 10 11 12 13 14 15 16
040
FTUS43 KMPX 080520
TAFSTC
TAF
KSTC 080520Z 0806/0906 29017G24KT 4SM -SN BR OVC016
     FM081600 32015G21KT P6SM -SN OVC020
     FM090000 32012KT P6SM BKN025=

USA.gov is the U.S. government's official web portal to all federal, state and local government web resources and services.